createdAt,value
2023-03-12T00:01:18.861Z,100545.59
2023-03-12T00:03:46.875Z,100551.75
2023-03-12T00:06:13.378Z,100549.94
2023-03-12T00:08:41.030Z,100546.44
2023-03-12T00:11:13.086Z,100542.00
2023-03-12T00:13:40.041Z,100542.88
2023-03-12T00:16:12.321Z,100543.69
2023-03-12T00:18:39.378Z,100538.28
2023-03-12T00:21:06.811Z,100547.94
2023-03-12T00:23:33.452Z,100534.69
2023-03-12T00:26:01.933Z,100541.78
2023-03-12T00:28:28.430Z,100542.63
2023-03-12T00:30:57.164Z,100548.88
2023-03-12T00:33:25.355Z,100536.50
2023-03-12T00:35:52.234Z,100535.63
2023-03-12T00:38:18.615Z,100536.50
2023-03-12T00:40:45.139Z,100534.78
2023-03-12T00:43:11.487Z,100533.94
2023-03-12T00:45:38.005Z,100524.19
2023-03-12T00:48:04.509Z,100520.81
2023-03-12T00:50:30.906Z,100516.38
2023-03-12T00:52:57.345Z,100516.38
2023-03-12T00:55:23.673Z,100511.09
2023-03-12T00:57:49.988Z,100510.22
2023-03-12T01:00:17.054Z,100515.41
2023-03-12T01:02:43.391Z,100505.81
2023-03-12T01:05:12.346Z,100504.00
2023-03-12T01:07:39.537Z,100498.78
2023-03-12T01:10:08.101Z,100489.16
2023-03-12T01:12:35.077Z,100496.28
2023-03-12T01:15:02.270Z,100493.72
2023-03-12T01:17:28.634Z,100495.63
2023-03-12T01:19:55.073Z,100493.22
2023-03-12T01:22:21.445Z,100498.63
2023-03-12T01:24:48.189Z,100490.78
2023-03-12T01:27:14.707Z,100491.00
2023-03-12T01:29:41.125Z,100485.94
2023-03-12T01:32:08.041Z,100484.34
2023-03-12T01:34:35.550Z,100490.59
2023-03-12T01:37:02.184Z,100487.19
2023-03-12T01:39:28.812Z,100489.97
2023-03-12T01:41:55.460Z,100497.16
2023-03-12T01:44:21.832Z,100492.00
2023-03-12T01:46:48.190Z,100489.34
2023-03-12T01:49:30.639Z,100492.00
2023-03-12T01:52:05.962Z,100480.66
2023-03-12T01:54:47.097Z,100479.81
2023-03-12T01:57:18.009Z,100481.72
2023-03-12T01:59:51.885Z,100486.19
2023-03-12T02:02:23.524Z,100475.69
2023-03-12T02:04:52.222Z,100486.28
2023-03-12T02:07:18.634Z,100478.34
2023-03-12T02:09:49.339Z,100476.53
2023-03-12T02:12:17.369Z,100474.72
2023-03-12T02:14:44.016Z,100474.72
2023-03-12T02:17:11.346Z,100467.66
2023-03-12T02:20:07.784Z,100469.25
2023-03-12T02:22:35.560Z,100460.94
2023-03-12T02:25:16.434Z,100456.50
2023-03-12T02:27:43.379Z,100465.31
2023-03-12T02:30:10.646Z,100459.88
2023-03-12T02:32:39.593Z,100460.63
2023-03-12T02:35:06.489Z,100461.47
2023-03-12T02:37:32.890Z,100458.72
2023-03-12T02:40:51.748Z,100461.16
2023-03-12T02:43:21.619Z,100452.16
2023-03-12T02:45:48.166Z,100453.00
2023-03-12T02:48:14.556Z,100447.59
2023-03-12T02:50:40.982Z,100442.31
2023-03-12T02:53:07.332Z,100445.69
2023-03-12T02:55:33.749Z,100434.97
2023-03-12T02:58:00.476Z,100428.72
2023-03-12T03:00:26.841Z,100433.91
2023-03-12T03:02:53.198Z,100425.88
2023-03-12T03:05:20.429Z,100431.88
2023-03-12T03:07:46.833Z,100431.66
2023-03-12T03:10:15.118Z,100431.44
2023-03-12T03:12:41.452Z,100424.25
2023-03-12T03:15:08.415Z,100428.47
2023-03-12T03:17:34.784Z,100431.81
2023-03-12T03:20:01.178Z,100421.00
2023-03-12T03:22:27.594Z,100419.09
2023-03-12T03:24:54.468Z,100421.41
2023-03-12T03:27:20.992Z,100417.69
2023-03-12T03:29:47.402Z,100407.84
2023-03-12T03:32:14.034Z,100404.13
2023-03-12T03:34:40.470Z,100390.00
2023-03-12T03:37:06.908Z,100402.31
2023-03-12T03:39:34.688Z,100405.69
2023-03-12T03:42:01.034Z,100403.25
2023-03-12T03:44:27.436Z,100397.09
2023-03-12T03:46:55.328Z,100409.50
2023-03-12T03:49:22.294Z,100405.19
2023-03-12T03:51:49.932Z,100392.88
2023-03-12T03:54:16.363Z,100400.00
2023-03-12T03:56:42.711Z,100399.16
2023-03-12T03:59:09.539Z,100397.47
2023-03-12T04:01:36.791Z,100393.00
2023-03-12T04:04:04.343Z,100380.72
2023-03-12T04:06:31.901Z,100377.13
2023-03-12T04:08:59.075Z,100382.41
2023-03-12T04:11:25.726Z,100376.16
2023-03-12T04:13:52.152Z,100372.66
2023-03-12T04:16:18.808Z,100366.41
2023-03-12T04:18:45.444Z,100369.03
2023-03-12T04:21:13.678Z,100381.34
2023-03-12T04:23:40.345Z,100371.59
2023-03-12T04:26:07.271Z,100371.59
2023-03-12T04:28:34.728Z,100368.81
2023-03-12T04:31:03.869Z,100359.09
2023-03-12T04:33:34.356Z,100356.31
2023-03-12T04:36:01.094Z,100360.75
2023-03-12T04:38:28.273Z,100356.31
2023-03-12T04:41:02.574Z,100343.78
2023-03-12T04:43:30.532Z,100337.53
2023-03-12T04:45:57.816Z,100336.59
2023-03-12T04:48:25.460Z,100335.50
2023-03-12T04:50:51.928Z,100334.53
2023-03-12T04:53:19.091Z,100329.25
2023-03-12T04:55:45.515Z,100327.31
2023-03-12T04:58:11.922Z,100321.06
2023-03-12T05:00:39.838Z,100330.56
2023-03-12T05:03:06.571Z,100323.50
2023-03-12T05:05:33.152Z,100315.53
2023-03-12T05:07:59.715Z,100304.94
2023-03-12T05:10:26.161Z,100299.66
2023-03-12T05:12:52.587Z,100299.66
2023-03-12T05:15:19.826Z,100303.13
2023-03-12T05:17:46.174Z,100299.66
2023-03-12T05:20:13.596Z,100294.34
2023-03-12T05:22:40.270Z,100290.72
2023-03-12T05:25:06.998Z,100290.72
2023-03-12T05:27:33.640Z,100274.84
2023-03-12T05:30:00.093Z,100270.50
2023-03-12T05:32:26.549Z,100266.88
2023-03-12T05:34:53.139Z,100265.06
2023-03-12T05:37:19.498Z,100271.22
2023-03-12T05:39:46.846Z,100268.56
2023-03-12T05:42:16.342Z,100261.34
2023-03-12T05:44:42.986Z,100261.34
2023-03-12T05:47:09.625Z,100255.06
2023-03-12T05:49:36.059Z,100240.88
2023-03-12T05:52:02.484Z,100234.50
2023-03-12T05:54:29.309Z,100243.19
2023-03-12T05:56:56.280Z,100247.50
2023-03-12T05:59:22.688Z,100236.81
2023-03-12T06:01:49.279Z,100243.78
2023-03-12T06:04:15.684Z,100238.22
2023-03-12T06:06:42.200Z,100232.81
2023-03-12T06:09:08.626Z,100223.78
2023-03-12T06:11:35.061Z,100227.13
2023-03-12T06:14:01.553Z,100233.91
2023-03-12T06:16:29.604Z,100237.28
2023-03-12T06:18:58.306Z,100231.72
2023-03-12T06:21:27.675Z,100226.19
2023-03-12T06:23:54.191Z,100228.72
2023-03-12T06:26:21.693Z,100224.97
2023-03-12T06:28:49.623Z,100220.25
2023-03-12T06:31:16.358Z,100227.97
2023-03-12T06:33:42.948Z,100217.97
2023-03-12T06:36:10.982Z,100210.72
2023-03-12T06:38:37.969Z,100212.19
2023-03-12T06:41:13.112Z,100207.44
2023-03-12T06:43:40.598Z,100208.06
2023-03-12T06:46:09.483Z,100208.53
2023-03-12T06:48:36.853Z,100207.31
2023-03-12T06:51:07.234Z,100208.75
2023-03-12T06:53:33.817Z,100202.22
2023-03-12T06:56:00.259Z,100202.69
2023-03-12T06:58:26.645Z,100205.81
2023-03-12T07:00:55.013Z,100203.63
2023-03-12T07:03:21.400Z,100201.44
2023-03-12T07:05:50.162Z,100201.06
2023-03-12T07:08:18.628Z,100203.44
2023-03-12T07:10:46.006Z,100211.03
2023-03-12T07:13:12.737Z,100201.97
2023-03-12T07:15:39.247Z,100208.84
2023-03-12T07:18:07.735Z,100191.94
2023-03-12T07:20:37.834Z,100187.34
2023-03-12T07:23:04.722Z,100183.72
2023-03-12T07:25:31.407Z,100181.78
2023-03-12T07:27:57.759Z,100170.06
2023-03-12T07:30:24.089Z,100167.25
2023-03-12T07:32:50.450Z,100170.38
2023-03-12T07:35:16.920Z,100168.16
2023-03-12T07:37:43.320Z,100173.94
2023-03-12T07:40:10.596Z,100177.75
2023-03-12T07:42:36.966Z,100168.56
2023-03-12T07:45:04.163Z,100181.19
2023-03-12T07:47:31.045Z,100170.03
2023-03-12T07:49:57.557Z,100179.03
2023-03-12T07:52:23.971Z,100185.34
2023-03-12T07:54:52.732Z,100184.69
2023-03-12T07:57:19.215Z,100177.75
2023-03-12T07:59:47.084Z,100177.09
2023-03-12T08:02:14.184Z,100174.00
2023-03-12T08:04:40.936Z,100168.28
2023-03-12T08:07:09.333Z,100164.25
2023-03-12T08:09:38.635Z,100170.16
2023-03-12T08:12:06.402Z,100162.72
2023-03-12T08:14:33.232Z,100168.47
2023-03-12T08:16:59.974Z,100163.72
2023-03-12T08:19:27.617Z,100168.75
2023-03-12T08:21:54.242Z,100170.19
2023-03-12T08:24:21.923Z,100166.41
2023-03-12T08:26:48.389Z,100165.28
2023-03-12T08:29:15.813Z,100169.50
2023-03-12T08:31:57.556Z,100156.03
2023-03-12T08:34:28.937Z,100155.78
2023-03-12T08:36:56.272Z,100163.63
2023-03-12T08:39:22.722Z,100160.84
2023-03-12T08:41:49.273Z,100166.88
2023-03-12T08:44:15.672Z,100163.91
2023-03-12T08:46:42.344Z,100163.63
2023-03-12T08:49:08.715Z,100156.38
2023-03-12T08:51:35.073Z,100156.09
2023-03-12T08:54:01.427Z,100154.97
2023-03-12T08:56:27.774Z,100145.28
2023-03-12T08:58:54.122Z,100144.31
2023-03-12T09:01:20.590Z,100154.13
2023-03-12T09:03:49.424Z,100147.09
2023-03-12T09:06:16.778Z,100163.91
2023-03-12T09:08:44.316Z,100150.75
2023-03-12T09:11:12.194Z,100145.44
2023-03-12T09:14:02.531Z,100154.25
2023-03-12T09:16:25.857Z,100161.41
2023-03-12T09:18:52.433Z,100157.75
2023-03-12T09:21:18.965Z,100136.47
2023-03-12T09:23:45.326Z,100131.16
2023-03-12T09:26:13.790Z,100132.84
2023-03-12T09:28:40.166Z,100114.22
2023-03-12T09:31:06.875Z,100114.22
2023-03-12T09:33:36.825Z,100114.06
2023-03-12T09:36:03.475Z,100110.44
2023-03-12T09:38:31.890Z,100106.78
2023-03-12T09:40:58.741Z,100105.94
2023-03-12T09:43:39.984Z,100081.00
2023-03-12T09:46:14.753Z,100088.84
2023-03-12T09:48:41.799Z,100085.38
2023-03-12T09:51:20.144Z,100075.56
2023-03-12T09:53:51.102Z,100072.91
2023-03-12T09:56:20.819Z,100073.59
2023-03-12T09:58:48.814Z,100063.09
2023-03-12T10:01:49.203Z,100071.78
2023-03-12T10:04:24.763Z,100082.53
2023-03-12T10:07:09.962Z,100085.38
2023-03-12T10:10:00.338Z,100091.66
2023-03-12T10:13:00.367Z,100098.09
2023-03-12T10:15:45.875Z,100087.59
2023-03-12T10:18:28.385Z,100084.25
2023-03-12T10:21:07.467Z,100080.75
2023-03-12T10:24:08.379Z,100075.56
2023-03-12T10:26:43.269Z,100083.41
2023-03-12T10:29:15.941Z,100078.91
2023-03-12T10:31:51.133Z,100085.78
2023-03-12T10:34:24.166Z,100083.94
2023-03-12T10:36:50.989Z,100090.94
2023-03-12T10:39:19.385Z,100096.97
2023-03-12T10:41:47.720Z,100095.00
2023-03-12T10:44:21.273Z,100089.41
2023-03-12T10:47:02.734Z,100075.13
2023-03-12T10:49:31.802Z,100078.47
2023-03-12T10:51:58.112Z,100079.31
2023-03-12T10:54:37.261Z,100067.53
2023-03-12T10:57:04.309Z,100067.53
2023-03-12T10:59:34.157Z,100069.94
2023-03-12T11:02:01.757Z,100075.94
2023-03-12T11:04:30.937Z,100053.53
2023-03-12T11:07:07.769Z,100050.47
2023-03-12T11:09:34.285Z,100052.84
2023-03-12T11:12:00.853Z,100061.22
2023-03-12T11:14:29.912Z,100060.94
2023-03-12T11:16:57.230Z,100068.66
2023-03-12T11:19:31.081Z,100072.00
2023-03-12T11:22:00.421Z,100057.72
2023-03-12T11:24:27.174Z,100055.75
2023-03-12T11:27:03.528Z,100055.59
2023-03-12T11:29:40.282Z,100046.59
2023-03-12T11:32:16.365Z,100041.97
2023-03-12T11:34:43.316Z,100037.34
2023-03-12T11:37:40.447Z,100037.75
2023-03-12T11:40:17.170Z,100040.84
2023-03-12T11:43:08.789Z,100044.03
2023-03-12T11:45:40.713Z,100036.44
2023-03-12T11:48:24.318Z,100026.19
2023-03-12T11:50:57.007Z,100023.91
2023-03-12T11:54:02.404Z,100020.81
2023-03-12T11:56:40.922Z,100028.06
2023-03-12T11:59:15.972Z,100025.81
2023-03-12T12:01:52.973Z,100022.66
2023-03-12T12:04:47.539Z,100025.59
2023-03-12T12:07:32.748Z,100020.66
2023-03-12T12:10:15.493Z,100019.19
2023-03-12T12:12:59.032Z,100005.44
2023-03-12T12:15:54.952Z,100007.66
2023-03-12T12:18:38.859Z,100003.66
2023-03-12T12:21:14.319Z,100000.38
2023-03-12T12:23:59.218Z,99994.59
2023-03-12T12:26:57.709Z,100000.31
2023-03-12T12:29:56.409Z,99990.88
2023-03-12T12:32:52.282Z,99988.56
2023-03-12T12:35:28.907Z,99985.44
2023-03-12T12:38:05.160Z,99986.84
2023-03-12T12:40:47.812Z,99985.50
2023-03-12T12:43:32.230Z,99979.88
2023-03-12T12:46:06.227Z,99972.41
2023-03-12T12:48:40.603Z,99974.59
2023-03-12T12:51:09.291Z,99974.28
2023-03-12T12:54:04.498Z,99971.97
2023-03-12T12:56:39.254Z,99965.34
2023-03-12T12:59:21.356Z,99977.22
2023-03-12T13:01:50.374Z,99965.38
2023-03-12T13:04:32.202Z,99966.75
2023-03-12T13:07:13.897Z,99962.63
2023-03-12T13:09:46.099Z,99968.47
2023-03-12T13:12:30.616Z,99960.81
2023-03-12T13:14:58.201Z,99965.69
2023-03-12T13:17:36.029Z,99958.06
2023-03-12T13:20:20.690Z,99953.91
2023-03-12T13:23:05.652Z,99951.59
2023-03-12T13:26:00.111Z,99953.78
2023-03-12T13:28:26.627Z,99949.78
2023-03-12T13:30:53.851Z,99951.97
2023-03-12T13:33:40.344Z,99942.47
2023-03-12T13:36:23.407Z,99939.00
2023-03-12T13:38:53.429Z,99931.38
2023-03-12T13:41:46.086Z,99923.69
2023-03-12T13:44:29.657Z,99923.03
2023-03-12T13:47:11.224Z,99926.06
2023-03-12T13:49:47.413Z,99922.06
2023-03-12T13:52:13.802Z,99919.06
2023-03-12T13:54:43.843Z,99907.88
2023-03-12T13:57:32.242Z,99911.88
2023-03-12T13:59:59.805Z,99917.75
2023-03-12T14:02:36.620Z,99920.75
2023-03-12T14:05:06.275Z,99917.75
2023-03-12T14:08:18.040Z,99922.44
2023-03-12T14:10:47.032Z,99924.63
2023-03-12T14:14:01.584Z,99925.78
2023-03-12T14:16:49.248Z,99934.16
2023-03-12T14:19:24.884Z,99934.31
2023-03-12T14:21:53.053Z,99940.81
2023-03-12T14:24:27.892Z,99931.47
2023-03-12T14:26:55.668Z,99931.81
2023-03-12T14:29:45.034Z,99934.66
2023-03-12T14:32:19.210Z,99927.78
2023-03-12T14:34:49.746Z,99927.09
2023-03-12T14:37:17.909Z,99936.13
2023-03-12T14:39:54.139Z,99938.13
2023-03-12T14:42:28.777Z,99943.47
2023-03-12T14:45:18.569Z,99926.88
2023-03-12T14:47:47.919Z,99921.84
2023-03-12T14:50:37.633Z,99926.50
2023-03-12T14:53:19.782Z,99922.66
2023-03-12T14:55:46.245Z,99932.19
2023-03-12T14:58:18.608Z,99939.72
2023-03-12T15:00:45.944Z,99921.63
2023-03-12T15:03:16.474Z,99913.91
2023-03-12T15:05:47.664Z,99920.41
2023-03-12T15:08:14.611Z,99918.06
2023-03-12T15:10:47.175Z,99915.84
2023-03-12T15:13:13.710Z,99917.66
2023-03-12T15:15:42.830Z,99924.88
2023-03-12T15:18:17.715Z,99933.69
2023-03-12T15:20:45.561Z,99924.78
2023-03-12T15:23:14.169Z,99927.41
2023-03-12T15:25:40.740Z,99928.38
2023-03-12T15:28:10.217Z,99927.31
2023-03-12T15:30:38.749Z,99932.97
2023-03-12T15:33:09.659Z,99924.22
2023-03-12T15:35:40.056Z,99918.97
2023-03-12T15:38:14.140Z,99916.41
2023-03-12T15:40:40.777Z,99924.56
2023-03-12T15:43:20.102Z,99927.38
2023-03-12T15:45:47.654Z,99923.97
2023-03-12T15:48:31.994Z,99921.59
2023-03-12T15:51:15.001Z,99920.84
2023-03-12T15:53:41.359Z,99923.81
2023-03-12T15:56:10.363Z,99928.50
2023-03-12T15:58:39.910Z,99917.19
2023-03-12T16:01:27.952Z,99919.16
2023-03-12T16:03:54.679Z,99920.63
2023-03-12T16:06:25.190Z,99928.34
2023-03-12T16:08:59.051Z,99911.00
2023-03-12T16:11:31.303Z,99934.81
2023-03-12T16:14:32.588Z,99930.28
2023-03-12T16:16:59.046Z,99915.84
2023-03-12T16:19:29.149Z,99926.59
2023-03-12T16:21:55.598Z,99929.28
2023-03-12T16:24:21.928Z,99931.97
2023-03-12T16:26:57.805Z,99934.28
2023-03-12T16:29:38.142Z,99927.22
2023-03-12T16:32:13.158Z,99928.06
2023-03-12T16:34:40.021Z,99932.59
2023-03-12T16:37:10.281Z,99933.44
2023-03-12T16:39:36.673Z,99944.19
2023-03-12T16:42:05.629Z,99938.81
2023-03-12T16:44:34.753Z,99931.59
2023-03-12T16:47:01.247Z,99938.81
2023-03-12T16:49:27.828Z,99935.09
2023-03-12T16:52:00.258Z,99938.63
2023-03-12T16:54:26.584Z,99945.03
2023-03-12T16:56:55.969Z,99941.31
2023-03-12T16:59:27.508Z,99947.50
2023-03-12T17:01:54.171Z,99940.66
2023-03-12T17:04:20.674Z,99945.03
2023-03-12T17:06:47.097Z,99937.13
2023-03-12T17:09:13.499Z,99949.75
2023-03-12T17:11:40.794Z,99945.41
2023-03-12T17:14:21.486Z,99940.03
2023-03-12T17:16:48.349Z,99936.69
2023-03-12T17:19:14.911Z,99931.31
2023-03-12T17:21:48.269Z,99928.78
2023-03-12T17:24:14.827Z,99931.69
2023-03-12T17:26:42.939Z,99933.50
2023-03-12T17:29:10.192Z,99934.72
2023-03-12T17:31:37.606Z,99944.00
2023-03-12T17:34:04.921Z,99938.78
2023-03-12T17:36:31.362Z,99943.50
2023-03-12T17:38:57.751Z,99958.13
2023-03-12T17:41:27.039Z,99956.63
2023-03-12T17:43:55.136Z,99964.03
2023-03-12T17:46:22.062Z,99968.78
2023-03-12T17:48:48.486Z,99968.13
2023-03-12T17:51:14.885Z,99967.44
2023-03-12T17:53:41.821Z,99978.41
2023-03-12T17:56:08.631Z,99976.91
2023-03-12T17:58:35.477Z,99987.66
2023-03-12T18:01:01.944Z,99985.13
2023-03-12T18:03:28.333Z,99985.94
2023-03-12T18:05:55.027Z,99990.50
2023-03-12T18:08:21.873Z,99977.06
2023-03-12T18:10:48.931Z,99975.03
2023-03-12T18:13:15.334Z,99974.22
2023-03-12T18:15:41.773Z,99974.84
2023-03-12T18:18:08.336Z,99966.78
2023-03-12T18:20:39.396Z,99976.53
2023-03-12T18:23:06.561Z,99982.75
2023-03-12T18:25:32.937Z,99987.06
2023-03-12T18:27:59.309Z,99996.00
2023-03-12T18:30:26.142Z,99994.13
2023-03-12T18:32:52.513Z,99997.47
2023-03-12T18:35:18.951Z,100003.69
2023-03-12T18:37:46.041Z,99998.31
2023-03-12T18:40:13.121Z,99999.97
2023-03-12T18:42:44.197Z,99995.44
2023-03-12T18:45:11.867Z,99998.94
2023-03-12T18:47:44.565Z,99997.94
2023-03-12T18:50:12.657Z,100000.63
2023-03-12T18:52:39.086Z,100000.81
2023-03-12T18:55:05.722Z,100000.81
2023-03-12T18:57:32.080Z,99993.78
2023-03-12T18:59:59.272Z,99997.47
2023-03-12T19:02:25.887Z,99989.59
2023-03-12T19:04:54.204Z,99987.94
2023-03-12T19:07:22.236Z,99986.25
2023-03-12T19:09:48.830Z,99979.22
2023-03-12T19:12:15.161Z,99976.69
2023-03-12T19:14:41.616Z,99969.69
2023-03-12T19:17:07.946Z,99966.31
2023-03-12T19:19:34.270Z,99969.19
2023-03-12T19:22:00.630Z,99962.97
2023-03-12T19:24:27.140Z,99953.44
2023-03-12T19:26:53.462Z,99955.28
2023-03-12T19:29:19.920Z,99945.75
2023-03-12T19:31:46.354Z,99947.78
2023-03-12T19:34:12.793Z,99947.78
2023-03-12T19:36:39.353Z,99947.13
2023-03-12T19:39:18.799Z,99948.34
2023-03-12T19:41:46.796Z,99948.34
2023-03-12T19:44:13.173Z,99949.53
2023-03-12T19:46:42.872Z,99943.28
2023-03-12T19:49:09.371Z,99952.38
2023-03-12T19:51:36.044Z,99946.19
2023-03-12T19:54:02.499Z,99948.88
2023-03-12T19:56:29.372Z,99949.84
2023-03-12T19:58:55.774Z,99955.44
2023-03-12T20:01:22.950Z,99960.78
2023-03-12T20:03:49.555Z,99956.25
2023-03-12T20:06:16.525Z,99955.59
2023-03-12T20:08:44.486Z,99957.28
2023-03-12T20:11:11.588Z,99958.09
2023-03-12T20:13:38.814Z,99962.66
2023-03-12T20:16:06.990Z,99947.38
2023-03-12T20:18:34.094Z,99948.38
2023-03-12T20:21:00.813Z,99942.16
2023-03-12T20:23:27.191Z,99940.31
2023-03-12T20:25:53.803Z,99928.59
2023-03-12T20:28:20.230Z,99930.25
2023-03-12T20:30:46.744Z,99919.34
2023-03-12T20:33:13.590Z,99925.38
2023-03-12T20:35:40.066Z,99921.50
2023-03-12T20:38:06.604Z,99931.38
2023-03-12T20:40:32.969Z,99922.13
2023-03-12T20:43:02.481Z,99921.94
2023-03-12T20:45:28.870Z,99924.44
2023-03-12T20:47:55.301Z,99926.13
2023-03-12T20:50:21.649Z,99921.41
2023-03-12T20:52:48.048Z,99925.59
2023-03-12T20:55:14.500Z,99931.59
2023-03-12T20:57:40.850Z,99934.94
2023-03-12T21:00:07.923Z,99932.91
2023-03-12T21:02:34.785Z,99932.53
2023-03-12T21:05:01.259Z,99932.16
2023-03-12T21:07:27.681Z,99924.78
2023-03-12T21:09:53.979Z,99913.66
2023-03-12T21:12:20.295Z,99921.34
2023-03-12T21:14:46.702Z,99911.28
2023-03-12T21:17:13.770Z,99916.28
2023-03-12T21:19:41.589Z,99912.22
2023-03-12T21:22:08.892Z,99910.19
2023-03-12T21:24:35.622Z,99900.94
2023-03-12T21:27:02.144Z,99900.72
2023-03-12T21:29:28.698Z,99892.50
2023-03-12T21:31:55.019Z,99896.00
2023-03-12T21:34:22.169Z,99889.59
2023-03-12T21:36:48.708Z,99884.88
2023-03-12T21:39:15.043Z,99886.75
2023-03-12T21:41:41.442Z,99881.38
2023-03-12T21:44:07.818Z,99875.81
2023-03-12T21:46:34.629Z,99873.13
2023-03-12T21:49:01.088Z,99874.78
2023-03-12T21:51:27.560Z,99869.25
2023-03-12T21:53:55.189Z,99859.34
2023-03-12T21:56:22.004Z,99852.94
2023-03-12T21:58:48.418Z,99849.25
2023-03-12T22:01:17.204Z,99850.88
2023-03-12T22:03:45.480Z,99853.56
2023-03-12T22:06:13.186Z,99847.38
2023-03-12T22:08:40.112Z,99849.25
2023-03-12T22:11:07.901Z,99846.34
2023-03-12T22:13:34.398Z,99843.00
2023-03-12T22:16:03.994Z,99840.97
2023-03-12T22:18:30.433Z,99833.13
2023-03-12T22:21:00.501Z,99833.94
2023-03-12T22:23:27.509Z,99817.81
2023-03-12T22:25:54.055Z,99821.50
2023-03-12T22:28:20.707Z,99817.00
2023-03-12T22:30:47.447Z,99810.75
2023-03-12T22:33:13.862Z,99801.69
2023-03-12T22:35:47.534Z,99806.03
2023-03-12T22:38:14.381Z,99794.47
2023-03-12T22:40:41.936Z,99790.13
2023-03-12T22:43:08.301Z,99786.41
2023-03-12T22:45:35.503Z,99781.03
2023-03-12T22:48:02.018Z,99775.66
2023-03-12T22:50:28.439Z,99772.16
2023-03-12T22:52:54.808Z,99769.25
2023-03-12T22:55:21.207Z,99767.59
2023-03-12T22:57:47.554Z,99766.56
2023-03-12T23:00:16.227Z,99760.38
2023-03-12T23:02:42.547Z,99750.66
2023-03-12T23:05:09.834Z,99755.00
2023-03-12T23:07:36.751Z,99745.91
2023-03-12T23:10:04.315Z,99749.63
2023-03-12T23:12:30.778Z,99739.69
2023-03-12T23:14:57.099Z,99735.34
2023-03-12T23:17:23.589Z,99735.16
2023-03-12T23:19:50.395Z,99734.31
2023-03-12T23:22:16.810Z,99722.75
2023-03-12T23:24:43.231Z,99713.84
2023-03-12T23:27:09.647Z,99710.97
2023-03-12T23:29:36.038Z,99707.44
2023-03-12T23:32:02.583Z,99697.53
2023-03-12T23:34:29.063Z,99704.59
2023-03-12T23:36:55.516Z,99706.25
2023-03-12T23:39:21.931Z,99692.63
2023-03-12T23:41:48.284Z,99693.63
2023-03-12T23:44:14.700Z,99686.22
2023-03-12T23:46:45.009Z,99688.06
2023-03-12T23:49:12.400Z,99683.53
2023-03-12T23:51:40.764Z,99673.59
2023-03-12T23:54:07.348Z,99663.72
2023-03-12T23:56:36.420Z,99661.84
2023-03-12T23:59:04.235Z,99662.84
